sensor_id;sensor_type;location;lat;lon;timestamp;P1;durP1;ratioP1;P2;durP2;ratioP2
15818;SDS011;8010;53.986;12.106;2023-02-01T00:02:06;5.57;;;1.43;;
15818;SDS011;8010;53.986;12.106;2023-02-01T00:04:31;5.63;;;0.97;;
15818;SDS011;8010;53.986;12.106;2023-02-01T00:06:57;8.23;;;1.83;;
15818;SDS011;8010;53.986;12.106;2023-02-01T00:09:22;9.10;;;2.13;;
15818;SDS011;8010;53.986;12.106;2023-02-01T00:11:48;9.00;;;1.83;;
15818;SDS011;8010;53.986;12.106;2023-02-01T00:14:14;8.30;;;2.00;;
15818;SDS011;8010;53.986;12.106;2023-02-01T00:16:39;5.80;;;1.47;;
15818;SDS011;8010;53.986;12.106;2023-02-01T00:19:12;9.67;;;2.00;;
15818;SDS011;8010;53.986;12.106;2023-02-01T00:21:39;6.00;;;1.47;;
15818;SDS011;8010;53.986;12.106;2023-02-01T00:24:05;8.03;;;1.40;;
15818;SDS011;8010;53.986;12.106;2023-02-01T00:28:58;13.50;;;2.10;;
15818;SDS011;8010;53.986;12.106;2023-02-01T00:31:25;11.20;;;2.00;;
15818;SDS011;8010;53.986;12.106;2023-02-01T00:33:50;4.17;;;1.17;;
15818;SDS011;8010;53.986;12.106;2023-02-01T00:36:16;6.43;;;1.97;;
15818;SDS011;8010;53.986;12.106;2023-02-01T00:38:42;10.07;;;1.67;;
15818;SDS011;8010;53.986;12.106;2023-02-01T00:41:10;10.43;;;1.90;;
15818;SDS011;8010;53.986;12.106;2023-02-01T00:43:37;7.00;;;1.50;;
15818;SDS011;8010;53.986;12.106;2023-02-01T00:46:03;11.20;;;1.63;;
15818;SDS011;8010;53.986;12.106;2023-02-01T00:48:29;8.67;;;1.43;;
15818;SDS011;8010;53.986;12.106;2023-02-01T00:50:58;7.70;;;1.87;;
15818;SDS011;8010;53.986;12.106;2023-02-01T00:53:28;8.33;;;1.47;;
15818;SDS011;8010;53.986;12.106;2023-02-01T00:55:54;10.90;;;1.60;;
15818;SDS011;8010;53.986;12.106;2023-02-01T00:58:19;4.97;;;1.23;;
15818;SDS011;8010;53.986;12.106;2023-02-01T01:00:45;8.17;;;1.33;;
15818;SDS011;8010;53.986;12.106;2023-02-01T01:03:11;5.50;;;1.27;;
15818;SDS011;8010;53.986;12.106;2023-02-01T01:05:48;5.50;;;1.17;;
15818;SDS011;8010;53.986;12.106;2023-02-01T01:08:15;9.13;;;1.57;;
15818;SDS011;8010;53.986;12.106;2023-02-01T01:10:41;4.63;;;1.07;;
15818;SDS011;8010;53.986;12.106;2023-02-01T01:13:07;6.17;;;1.07;;
15818;SDS011;8010;53.986;12.106;2023-02-01T01:15:37;10.40;;;1.43;;
15818;SDS011;8010;53.986;12.106;2023-02-01T01:18:04;8.03;;;1.90;;
15818;SDS011;8010;53.986;12.106;2023-02-01T01:20:30;5.77;;;1.43;;
15818;SDS011;8010;53.986;12.106;2023-02-01T01:22:55;8.20;;;2.10;;
15818;SDS011;8010;53.986;12.106;2023-02-01T01:25:21;6.77;;;1.53;;
15818;SDS011;8010;53.986;12.106;2023-02-01T01:27:46;5.90;;;1.23;;
15818;SDS011;8010;53.986;12.106;2023-02-01T01:30:12;9.63;;;1.93;;
15818;SDS011;8010;53.986;12.106;2023-02-01T01:32:38;9.50;;;1.10;;
15818;SDS011;8010;53.986;12.106;2023-02-01T01:35:04;7.30;;;1.40;;
15818;SDS011;8010;53.986;12.106;2023-02-01T01:37:30;11.30;;;1.57;;
15818;SDS011;8010;53.986;12.106;2023-02-01T01:39:57;8.93;;;1.73;;
15818;SDS011;8010;53.986;12.106;2023-02-01T01:42:22;10.13;;;1.67;;
15818;SDS011;8010;53.986;12.106;2023-02-01T01:44:55;10.10;;;1.20;;
15818;SDS011;8010;53.986;12.106;2023-02-01T01:47:22;3.77;;;0.97;;
15818;SDS011;8010;53.986;12.106;2023-02-01T01:49:49;5.73;;;1.30;;
15818;SDS011;8010;53.986;12.106;2023-02-01T01:52:15;8.03;;;1.33;;
15818;SDS011;8010;53.986;12.106;2023-02-01T01:54:42;7.97;;;1.47;;
15818;SDS011;8010;53.986;12.106;2023-02-01T01:57:13;6.00;;;1.40;;
15818;SDS011;8010;53.986;12.106;2023-02-01T01:59:43;13.70;;;2.23;;
15818;SDS011;8010;53.986;12.106;2023-02-01T02:02:14;5.23;;;1.53;;
15818;SDS011;8010;53.986;12.106;2023-02-01T02:04:41;9.37;;;1.90;;
15818;SDS011;8010;53.986;12.106;2023-02-01T02:07:08;8.33;;;1.57;;
15818;SDS011;8010;53.986;12.106;2023-02-01T02:09:38;9.47;;;1.73;;
15818;SDS011;8010;53.986;12.106;2023-02-01T02:12:03;15.63;;;1.87;;
15818;SDS011;8010;53.986;12.106;2023-02-01T02:14:29;12.47;;;1.70;;
15818;SDS011;8010;53.986;12.106;2023-02-01T02:17:03;9.87;;;1.80;;
15818;SDS011;8010;53.986;12.106;2023-02-01T02:22:42;7.20;;;1.57;;
15818;SDS011;8010;53.986;12.106;2023-02-01T02:33:41;2.37;;;0.90;;
15818;SDS011;8010;53.986;12.106;2023-02-01T02:39:10;3.70;;;0.70;;
15818;SDS011;8010;53.986;12.106;2023-02-01T02:44:51;6.43;;;0.73;;
15818;SDS011;8010;53.986;12.106;2023-02-01T02:50:28;6.03;;;0.67;;
15818;SDS011;8010;53.986;12.106;2023-02-01T02:56:48;3.53;;;0.50;;
15818;SDS011;8010;53.986;12.106;2023-02-01T02:59:33;0.93;;;0.30;;
15818;SDS011;8010;53.986;12.106;2023-02-01T03:02:18;5.77;;;0.40;;
15818;SDS011;8010;53.986;12.106;2023-02-01T03:05:03;4.60;;;0.80;;
15818;SDS011;8010;53.986;12.106;2023-02-01T03:10:18;5.17;;;0.90;;
15818;SDS011;8010;53.986;12.106;2023-02-01T03:13:20;1.50;;;0.50;;
15818;SDS011;8010;53.986;12.106;2023-02-01T03:16:01;2.63;;;0.70;;
15818;SDS011;8010;53.986;12.106;2023-02-01T03:18:33;8.87;;;1.33;;
15818;SDS011;8010;53.986;12.106;2023-02-01T03:21:04;7.77;;;1.17;;
15818;SDS011;8010;53.986;12.106;2023-02-01T03:23:35;5.53;;;0.90;;
15818;SDS011;8010;53.986;12.106;2023-02-01T03:26:03;10.07;;;1.53;;
15818;SDS011;8010;53.986;12.106;2023-02-01T03:28:32;12.97;;;1.80;;
15818;SDS011;8010;53.986;12.106;2023-02-01T03:30:59;7.77;;;1.40;;
15818;SDS011;8010;53.986;12.106;2023-02-01T03:33:25;10.10;;;1.23;;
15818;SDS011;8010;53.986;12.106;2023-02-01T03:35:57;6.70;;;1.57;;
15818;SDS011;8010;53.986;12.106;2023-02-01T03:44:11;6.23;;;1.40;;
15818;SDS011;8010;53.986;12.106;2023-02-01T03:46:52;9.10;;;1.90;;
15818;SDS011;8010;53.986;12.106;2023-02-01T03:49:33;12.10;;;1.93;;
15818;SDS011;8010;53.986;12.106;2023-02-01T03:52:14;7.40;;;1.60;;
15818;SDS011;8010;53.986;12.106;2023-02-01T03:54:49;13.23;;;1.50;;
15818;SDS011;8010;53.986;12.106;2023-02-01T03:57:16;8.50;;;1.50;;
15818;SDS011;8010;53.986;12.106;2023-02-01T03:59:47;8.03;;;1.17;;
15818;SDS011;8010;53.986;12.106;2023-02-01T04:02:12;10.63;;;1.77;;
15818;SDS011;8010;53.986;12.106;2023-02-01T04:04:38;8.57;;;1.40;;
15818;SDS011;8010;53.986;12.106;2023-02-01T04:07:04;12.77;;;2.33;;
15818;SDS011;8010;53.986;12.106;2023-02-01T04:09:29;10.87;;;1.70;;
15818;SDS011;8010;53.986;12.106;2023-02-01T04:11:55;15.30;;;1.83;;
15818;SDS011;8010;53.986;12.106;2023-02-01T04:14:20;15.57;;;2.33;;
15818;SDS011;8010;53.986;12.106;2023-02-01T04:16:46;8.80;;;1.90;;
15818;SDS011;8010;53.986;12.106;2023-02-01T04:19:11;12.63;;;2.47;;
15818;SDS011;8010;53.986;12.106;2023-02-01T04:21:37;11.57;;;1.70;;
15818;SDS011;8010;53.986;12.106;2023-02-01T04:24:03;22.93;;;2.80;;
15818;SDS011;8010;53.986;12.106;2023-02-01T04:26:29;14.80;;;2.40;;
15818;SDS011;8010;53.986;12.106;2023-02-01T04:28:54;11.77;;;2.50;;
15818;SDS011;8010;53.986;12.106;2023-02-01T04:31:20;13.20;;;2.00;;
15818;SDS011;8010;53.986;12.106;2023-02-01T04:33:52;16.93;;;2.40;;
15818;SDS011;8010;53.986;12.106;2023-02-01T04:36:19;8.67;;;1.73;;
15818;SDS011;8010;53.986;12.106;2023-02-01T04:38:47;14.27;;;2.43;;
15818;SDS011;8010;53.986;12.106;2023-02-01T04:41:13;16.37;;;2.53;;
15818;SDS011;8010;53.986;12.106;2023-02-01T04:43:38;18.70;;;2.97;;
15818;SDS011;8010;53.986;12.106;2023-02-01T04:46:04;16.83;;;2.27;;
15818;SDS011;8010;53.986;12.106;2023-02-01T04:48:29;11.57;;;2.87;;
15818;SDS011;8010;53.986;12.106;2023-02-01T04:50:55;10.23;;;1.83;;
15818;SDS011;8010;53.986;12.106;2023-02-01T04:53:21;23.47;;;2.53;;
15818;SDS011;8010;53.986;12.106;2023-02-01T04:55:47;18.13;;;2.73;;
15818;SDS011;8010;53.986;12.106;2023-02-01T04:58:13;13.40;;;2.47;;
15818;SDS011;8010;53.986;12.106;2023-02-01T05:00:39;19.63;;;2.83;;
15818;SDS011;8010;53.986;12.106;2023-02-01T05:03:04;15.33;;;2.40;;
15818;SDS011;8010;53.986;12.106;2023-02-01T05:05:30;12.63;;;2.27;;
15818;SDS011;8010;53.986;12.106;2023-02-01T05:07:56;21.37;;;2.50;;
15818;SDS011;8010;53.986;12.106;2023-02-01T05:10:21;13.80;;;2.70;;
15818;SDS011;8010;53.986;12.106;2023-02-01T05:12:47;12.93;;;2.43;;
15818;SDS011;8010;53.986;12.106;2023-02-01T05:15:31;18.37;;;2.90;;
15818;SDS011;8010;53.986;12.106;2023-02-01T05:17:57;15.40;;;3.47;;
15818;SDS011;8010;53.986;12.106;2023-02-01T05:20:23;12.97;;;1.93;;
15818;SDS011;8010;53.986;12.106;2023-02-01T05:22:49;23.10;;;3.00;;
15818;SDS011;8010;53.986;12.106;2023-02-01T05:25:15;13.60;;;2.63;;
15818;SDS011;8010;53.986;12.106;2023-02-01T05:27:41;15.97;;;2.63;;
15818;SDS011;8010;53.986;12.106;2023-02-01T05:30:07;18.13;;;2.83;;
15818;SDS011;8010;53.986;12.106;2023-02-01T05:32:33;12.90;;;2.43;;
15818;SDS011;8010;53.986;12.106;2023-02-01T05:34:59;20.10;;;2.73;;
15818;SDS011;8010;53.986;12.106;2023-02-01T05:37:24;10.70;;;2.67;;
15818;SDS011;8010;53.986;12.106;2023-02-01T05:39:50;16.53;;;2.57;;
15818;SDS011;8010;53.986;12.106;2023-02-01T05:42:15;11.30;;;2.47;;
15818;SDS011;8010;53.986;12.106;2023-02-01T05:44:41;12.53;;;2.17;;
15818;SDS011;8010;53.986;12.106;2023-02-01T05:47:07;9.20;;;2.20;;
15818;SDS011;8010;53.986;12.106;2023-02-01T05:49:33;13.57;;;1.83;;
15818;SDS011;8010;53.986;12.106;2023-02-01T05:51:58;6.43;;;1.53;;
15818;SDS011;8010;53.986;12.106;2023-02-01T05:54:24;6.93;;;1.20;;
15818;SDS011;8010;53.986;12.106;2023-02-01T05:56:49;7.43;;;1.50;;
15818;SDS011;8010;53.986;12.106;2023-02-01T05:59:15;5.47;;;1.73;;
15818;SDS011;8010;53.986;12.106;2023-02-01T06:01:40;4.27;;;0.97;;
15818;SDS011;8010;53.986;12.106;2023-02-01T06:04:06;7.10;;;1.13;;
15818;SDS011;8010;53.986;12.106;2023-02-01T06:06:32;10.97;;;1.80;;
15818;SDS011;8010;53.986;12.106;2023-02-01T06:08:57;5.43;;;1.03;;
15818;SDS011;8010;53.986;12.106;2023-02-01T06:11:23;4.00;;;1.30;;
15818;SDS011;8010;53.986;12.106;2023-02-01T06:13:48;7.40;;;1.50;;
15818;SDS011;8010;53.986;12.106;2023-02-01T06:16:14;5.87;;;1.20;;
15818;SDS011;8010;53.986;12.106;2023-02-01T06:18:40;3.53;;;1.17;;
15818;SDS011;8010;53.986;12.106;2023-02-01T06:21:06;9.47;;;1.97;;
15818;SDS011;8010;53.986;12.106;2023-02-01T06:23:33;5.20;;;1.07;;
15818;SDS011;8010;53.986;12.106;2023-02-01T06:26:00;10.77;;;1.20;;
15818;SDS011;8010;53.986;12.106;2023-02-01T06:28:31;7.10;;;0.80;;
15818;SDS011;8010;53.986;12.106;2023-02-01T06:30:57;6.23;;;1.10;;
15818;SDS011;8010;53.986;12.106;2023-02-01T06:33:25;4.07;;;0.57;;
15818;SDS011;8010;53.986;12.106;2023-02-01T06:35:58;4.97;;;0.80;;
15818;SDS011;8010;53.986;12.106;2023-02-01T06:38:25;5.90;;;0.80;;
15818;SDS011;8010;53.986;12.106;2023-02-01T06:40:54;3.43;;;0.50;;
15818;SDS011;8010;53.986;12.106;2023-02-01T06:43:21;3.93;;;0.60;;
15818;SDS011;8010;53.986;12.106;2023-02-01T06:45:51;2.23;;;0.70;;
15818;SDS011;8010;53.986;12.106;2023-02-01T06:48:17;1.40;;;0.50;;
15818;SDS011;8010;53.986;12.106;2023-02-01T06:50:43;0.50;;;0.33;;
15818;SDS011;8010;53.986;12.106;2023-02-01T06:53:09;0.73;;;0.57;;
15818;SDS011;8010;53.986;12.106;2023-02-01T06:55:34;2.43;;;0.70;;
15818;SDS011;8010;53.986;12.106;2023-02-01T06:58:00;7.60;;;1.17;;
15818;SDS011;8010;53.986;12.106;2023-02-01T07:00:27;2.80;;;0.80;;
15818;SDS011;8010;53.986;12.106;2023-02-01T07:02:53;1.83;;;0.50;;
15818;SDS011;8010;53.986;12.106;2023-02-01T07:05:19;1.93;;;1.00;;
15818;SDS011;8010;53.986;12.106;2023-02-01T07:07:44;6.37;;;1.23;;
15818;SDS011;8010;53.986;12.106;2023-02-01T07:10:10;1.00;;;0.70;;
15818;SDS011;8010;53.986;12.106;2023-02-01T07:12:36;4.17;;;1.17;;
15818;SDS011;8010;53.986;12.106;2023-02-01T07:15:02;4.37;;;0.90;;
15818;SDS011;8010;53.986;12.106;2023-02-01T07:17:28;4.17;;;1.07;;
15818;SDS011;8010;53.986;12.106;2023-02-01T07:19:54;2.80;;;0.70;;
15818;SDS011;8010;53.986;12.106;2023-02-01T07:22:24;1.23;;;0.40;;
15818;SDS011;8010;53.986;12.106;2023-02-01T07:24:50;1.77;;;0.80;;
15818;SDS011;8010;53.986;12.106;2023-02-01T07:27:16;0.73;;;0.57;;
15818;SDS011;8010;53.986;12.106;2023-02-01T07:29:41;3.47;;;1.23;;
15818;SDS011;8010;53.986;12.106;2023-02-01T07:32:07;7.50;;;1.90;;
15818;SDS011;8010;53.986;12.106;2023-02-01T07:34:32;7.30;;;1.50;;
15818;SDS011;8010;53.986;12.106;2023-02-01T07:36:59;3.50;;;1.30;;
15818;SDS011;8010;53.986;12.106;2023-02-01T07:39:24;4.47;;;1.00;;
15818;SDS011;8010;53.986;12.106;2023-02-01T07:41:53;5.00;;;0.83;;
15818;SDS011;8010;53.986;12.106;2023-02-01T07:44:18;3.27;;;0.80;;
15818;SDS011;8010;53.986;12.106;2023-02-01T07:46:47;4.40;;;1.00;;
15818;SDS011;8010;53.986;12.106;2023-02-01T07:49:13;2.77;;;0.97;;
15818;SDS011;8010;53.986;12.106;2023-02-01T07:51:38;3.93;;;1.10;;
15818;SDS011;8010;53.986;12.106;2023-02-01T07:54:04;5.50;;;0.97;;
15818;SDS011;8010;53.986;12.106;2023-02-01T07:56:29;5.93;;;1.10;;
15818;SDS011;8010;53.986;12.106;2023-02-01T07:58:55;11.37;;;1.83;;
15818;SDS011;8010;53.986;12.106;2023-02-01T08:01:24;4.27;;;1.00;;
15818;SDS011;8010;53.986;12.106;2023-02-01T08:03:52;3.10;;;0.63;;
15818;SDS011;8010;53.986;12.106;2023-02-01T08:06:23;4.33;;;0.80;;
15818;SDS011;8010;53.986;12.106;2023-02-01T08:08:50;2.33;;;0.80;;
15818;SDS011;8010;53.986;12.106;2023-02-01T08:11:16;4.80;;;1.73;;
15818;SDS011;8010;53.986;12.106;2023-02-01T08:13:42;6.47;;;1.13;;
15818;SDS011;8010;53.986;12.106;2023-02-01T08:16:09;8.63;;;1.30;;
15818;SDS011;8010;53.986;12.106;2023-02-01T08:18:35;5.20;;;0.90;;
15818;SDS011;8010;53.986;12.106;2023-02-01T08:21:24;9.33;;;0.97;;
15818;SDS011;8010;53.986;12.106;2023-02-01T08:23:49;5.87;;;1.37;;
15818;SDS011;8010;53.986;12.106;2023-02-01T08:26:17;2.40;;;0.87;;
15818;SDS011;8010;53.986;12.106;2023-02-01T08:29:06;6.10;;;1.27;;
15818;SDS011;8010;53.986;12.106;2023-02-01T08:31:31;4.07;;;1.20;;
15818;SDS011;8010;53.986;12.106;2023-02-01T08:33:57;5.80;;;1.00;;
15818;SDS011;8010;53.986;12.106;2023-02-01T08:36:25;7.23;;;1.30;;
15818;SDS011;8010;53.986;12.106;2023-02-01T08:38:52;6.50;;;1.33;;
15818;SDS011;8010;53.986;12.106;2023-02-01T08:41:19;3.53;;;1.13;;
15818;SDS011;8010;53.986;12.106;2023-02-01T08:43:46;9.27;;;1.27;;
15818;SDS011;8010;53.986;12.106;2023-02-01T08:46:12;4.33;;;1.00;;
15818;SDS011;8010;53.986;12.106;2023-02-01T08:48:38;6.70;;;1.50;;
15818;SDS011;8010;53.986;12.106;2023-02-01T08:51:05;3.50;;;1.33;;
15818;SDS011;8010;53.986;12.106;2023-02-01T08:53:32;6.00;;;1.10;;
15818;SDS011;8010;53.986;12.106;2023-02-01T08:55:58;4.73;;;0.80;;
15818;SDS011;8010;53.986;12.106;2023-02-01T08:58:25;5.07;;;1.43;;
15818;SDS011;8010;53.986;12.106;2023-02-01T09:00:51;9.10;;;1.70;;
15818;SDS011;8010;53.986;12.106;2023-02-01T09:03:16;6.77;;;1.47;;
15818;SDS011;8010;53.986;12.106;2023-02-01T09:05:42;9.13;;;1.83;;
15818;SDS011;8010;53.986;12.106;2023-02-01T09:08:08;7.20;;;2.17;;
15818;SDS011;8010;53.986;12.106;2023-02-01T09:10:34;7.17;;;1.63;;
15818;SDS011;8010;53.986;12.106;2023-02-01T09:13:01;10.07;;;1.90;;
15818;SDS011;8010;53.986;12.106;2023-02-01T09:15:27;2.67;;;0.83;;
15818;SDS011;8010;53.986;12.106;2023-02-01T09:17:53;6.50;;;1.50;;
15818;SDS011;8010;53.986;12.106;2023-02-01T09:20:19;8.17;;;1.33;;
15818;SDS011;8010;53.986;12.106;2023-02-01T09:22:48;10.43;;;1.73;;
15818;SDS011;8010;53.986;12.106;2023-02-01T09:25:15;5.73;;;1.87;;
15818;SDS011;8010;53.986;12.106;2023-02-01T09:27:40;9.37;;;1.97;;
15818;SDS011;8010;53.986;12.106;2023-02-01T09:30:06;9.27;;;1.53;;
15818;SDS011;8010;53.986;12.106;2023-02-01T09:32:32;12.30;;;1.77;;
15818;SDS011;8010;53.986;12.106;2023-02-01T09:34:58;10.20;;;2.20;;
15818;SDS011;8010;53.986;12.106;2023-02-01T09:37:23;19.07;;;1.93;;
15818;SDS011;8010;53.986;12.106;2023-02-01T09:39:49;7.57;;;1.13;;
15818;SDS011;8010;53.986;12.106;2023-02-01T09:42:16;10.93;;;2.10;;
15818;SDS011;8010;53.986;12.106;2023-02-01T09:45:06;9.40;;;1.50;;
15818;SDS011;8010;53.986;12.106;2023-02-01T09:47:46;13.37;;;2.73;;
15818;SDS011;8010;53.986;12.106;2023-02-01T09:50:17;9.50;;;1.60;;
15818;SDS011;8010;53.986;12.106;2023-02-01T09:52:54;11.67;;;1.83;;
15818;SDS011;8010;53.986;12.106;2023-02-01T09:58:07;6.13;;;1.17;;
15818;SDS011;8010;53.986;12.106;2023-02-01T10:00:39;5.73;;;1.53;;
15818;SDS011;8010;53.986;12.106;2023-02-01T10:03:10;8.17;;;1.30;;
15818;SDS011;8010;53.986;12.106;2023-02-01T10:08:53;6.73;;;1.20;;
15818;SDS011;8010;53.986;12.106;2023-02-01T10:11:29;11.10;;;1.73;;
15818;SDS011;8010;53.986;12.106;2023-02-01T10:20:07;10.33;;;1.40;;
15818;SDS011;8010;53.986;12.106;2023-02-01T10:22:46;7.80;;;1.63;;
15818;SDS011;8010;53.986;12.106;2023-02-01T10:25:23;6.67;;;1.63;;
15818;SDS011;8010;53.986;12.106;2023-02-01T10:27:53;6.70;;;1.40;;
15818;SDS011;8010;53.986;12.106;2023-02-01T10:30:24;5.33;;;1.20;;
15818;SDS011;8010;53.986;12.106;2023-02-01T10:32:54;8.87;;;1.40;;
15818;SDS011;8010;53.986;12.106;2023-02-01T10:35:22;6.57;;;1.20;;
15818;SDS011;8010;53.986;12.106;2023-02-01T10:37:53;7.57;;;1.80;;
15818;SDS011;8010;53.986;12.106;2023-02-01T10:40:21;9.60;;;1.90;;
15818;SDS011;8010;53.986;12.106;2023-02-01T10:42:53;8.40;;;1.50;;
15818;SDS011;8010;53.986;12.106;2023-02-01T10:45:22;5.67;;;1.17;;
15818;SDS011;8010;53.986;12.106;2023-02-01T10:47:52;11.90;;;1.80;;
15818;SDS011;8010;53.986;12.106;2023-02-01T10:50:27;9.33;;;1.57;;
15818;SDS011;8010;53.986;12.106;2023-02-01T10:55:50;5.23;;;1.30;;
15818;SDS011;8010;53.986;12.106;2023-02-01T10:58:26;9.07;;;1.90;;
15818;SDS011;8010;53.986;12.106;2023-02-01T11:06:03;5.97;;;1.50;;
15818;SDS011;8010;53.986;12.106;2023-02-01T11:08:53;6.90;;;1.30;;
15818;SDS011;8010;53.986;12.106;2023-02-01T11:11:22;9.17;;;1.63;;
15818;SDS011;8010;53.986;12.106;2023-02-01T11:13:55;11.27;;;1.47;;
15818;SDS011;8010;53.986;12.106;2023-02-01T11:16:22;8.03;;;1.50;;
15818;SDS011;8010;53.986;12.106;2023-02-01T11:19:00;11.50;;;1.37;;
15818;SDS011;8010;53.986;12.106;2023-02-01T11:21:26;10.60;;;1.63;;
15818;SDS011;8010;53.986;12.106;2023-02-01T11:23:52;11.13;;;1.40;;
15818;SDS011;8010;53.986;12.106;2023-02-01T11:26:23;11.50;;;2.33;;
15818;SDS011;8010;53.986;12.106;2023-02-01T11:28:51;13.30;;;2.13;;
15818;SDS011;8010;53.986;12.106;2023-02-01T11:31:24;5.73;;;1.43;;
15818;SDS011;8010;53.986;12.106;2023-02-01T11:33:52;5.97;;;1.83;;
15818;SDS011;8010;53.986;12.106;2023-02-01T11:36:22;9.23;;;1.77;;
15818;SDS011;8010;53.986;12.106;2023-02-01T11:38:52;10.00;;;1.27;;
15818;SDS011;8010;53.986;12.106;2023-02-01T11:41:34;5.60;;;1.90;;
15818;SDS011;8010;53.986;12.106;2023-02-01T11:44:15;4.33;;;0.63;;
15818;SDS011;8010;53.986;12.106;2023-02-01T11:46:46;7.73;;;1.73;;
15818;SDS011;8010;53.986;12.106;2023-02-01T11:49:25;9.53;;;1.43;;
15818;SDS011;8010;53.986;12.106;2023-02-01T11:54:50;5.03;;;1.43;;
15818;SDS011;8010;53.986;12.106;2023-02-01T12:03:10;4.80;;;0.90;;
15818;SDS011;8010;53.986;12.106;2023-02-01T12:06:05;1.57;;;0.90;;
15818;SDS011;8010;53.986;12.106;2023-02-01T12:08:51;2.67;;;0.90;;
15818;SDS011;8010;53.986;12.106;2023-02-01T12:17:13;4.37;;;0.80;;
15818;SDS011;8010;53.986;12.106;2023-02-01T12:19:48;3.47;;;1.13;;
15818;SDS011;8010;53.986;12.106;2023-02-01T12:22:25;7.27;;;0.87;;
15818;SDS011;8010;53.986;12.106;2023-02-01T12:25:11;5.23;;;1.37;;
15818;SDS011;8010;53.986;12.106;2023-02-01T12:27:48;2.27;;;0.90;;
15818;SDS011;8010;53.986;12.106;2023-02-01T12:30:44;7.83;;;0.80;;
15818;SDS011;8010;53.986;12.106;2023-02-01T12:38:59;10.03;;;1.77;;
15818;SDS011;8010;53.986;12.106;2023-02-01T12:41:47;11.43;;;1.40;;
15818;SDS011;8010;53.986;12.106;2023-02-01T12:44:32;7.13;;;1.30;;
15818;SDS011;8010;53.986;12.106;2023-02-01T12:52:32;6.83;;;1.83;;
15818;SDS011;8010;53.986;12.106;2023-02-01T12:55:10;8.70;;;1.70;;
15818;SDS011;8010;53.986;12.106;2023-02-01T12:58:04;7.80;;;1.77;;
15818;SDS011;8010;53.986;12.106;2023-02-01T13:01:07;10.70;;;2.17;;
15818;SDS011;8010;53.986;12.106;2023-02-01T13:03:38;9.60;;;1.60;;
15818;SDS011;8010;53.986;12.106;2023-02-01T13:11:20;11.03;;;1.60;;
15818;SDS011;8010;53.986;12.106;2023-02-01T13:13:56;4.47;;;1.20;;
15818;SDS011;8010;53.986;12.106;2023-02-01T13:16:37;6.13;;;0.90;;
15818;SDS011;8010;53.986;12.106;2023-02-01T13:21:39;7.17;;;1.20;;
15818;SDS011;8010;53.986;12.106;2023-02-01T13:24:22;5.17;;;0.97;;
15818;SDS011;8010;53.986;12.106;2023-02-01T13:26:54;4.20;;;1.00;;
15818;SDS011;8010;53.986;12.106;2023-02-01T13:29:20;6.90;;;1.50;;
15818;SDS011;8010;53.986;12.106;2023-02-01T13:31:57;6.33;;;1.30;;
15818;SDS011;8010;53.986;12.106;2023-02-01T13:37:39;7.20;;;1.60;;
15818;SDS011;8010;53.986;12.106;2023-02-01T13:43:18;7.23;;;1.13;;
15818;SDS011;8010;53.986;12.106;2023-02-01T13:45:56;1.43;;;0.40;;
15818;SDS011;8010;53.986;12.106;2023-02-01T13:48:29;2.93;;;0.60;;
15818;SDS011;8010;53.986;12.106;2023-02-01T13:51:15;1.07;;;0.10;;
15818;SDS011;8010;53.986;12.106;2023-02-01T13:54:00;0.53;;;0.20;;
15818;SDS011;8010;53.986;12.106;2023-02-01T13:56:26;0.20;;;0.03;;
15818;SDS011;8010;53.986;12.106;2023-02-01T13:58:52;0.20;;;0.10;;
15818;SDS011;8010;53.986;12.106;2023-02-01T14:03:47;0.70;;;0.27;;
15818;SDS011;8010;53.986;12.106;2023-02-01T14:11:33;0.40;;;0.10;;
15818;SDS011;8010;53.986;12.106;2023-02-01T14:21:52;1.63;;;0.30;;
15818;SDS011;8010;53.986;12.106;2023-02-01T14:24:29;2.87;;;0.53;;
15818;SDS011;8010;53.986;12.106;2023-02-01T14:29:52;3.03;;;0.40;;
15818;SDS011;8010;53.986;12.106;2023-02-01T14:32:24;1.90;;;0.20;;
15818;SDS011;8010;53.986;12.106;2023-02-01T14:34:57;1.17;;;0.60;;
15818;SDS011;8010;53.986;12.106;2023-02-01T14:37:29;0.60;;;0.20;;
15818;SDS011;8010;53.986;12.106;2023-02-01T14:42:39;1.40;;;0.43;;
15818;SDS011;8010;53.986;12.106;2023-02-01T14:50:18;1.33;;;0.40;;
15818;SDS011;8010;53.986;12.106;2023-02-01T14:55:35;6.17;;;0.47;;
15818;SDS011;8010;53.986;12.106;2023-02-01T14:58:04;2.10;;;0.50;;
15818;SDS011;8010;53.986;12.106;2023-02-01T15:00:35;3.43;;;0.40;;
15818;SDS011;8010;53.986;12.106;2023-02-01T15:03:16;1.77;;;0.40;;
15818;SDS011;8010;53.986;12.106;2023-02-01T15:06:01;2.80;;;0.53;;
15818;SDS011;8010;53.986;12.106;2023-02-01T15:08:29;5.20;;;0.70;;
15818;SDS011;8010;53.986;12.106;2023-02-01T15:10:58;2.23;;;0.40;;
15818;SDS011;8010;53.986;12.106;2023-02-01T15:13:27;6.80;;;0.70;;
15818;SDS011;8010;53.986;12.106;2023-02-01T15:16:00;3.03;;;0.80;;
15818;SDS011;8010;53.986;12.106;2023-02-01T15:18:27;2.70;;;0.50;;
15818;SDS011;8010;53.986;12.106;2023-02-01T15:20:56;2.53;;;0.40;;
15818;SDS011;8010;53.986;12.106;2023-02-01T15:23:23;1.90;;;0.70;;
15818;SDS011;8010;53.986;12.106;2023-02-01T15:25:48;3.60;;;0.63;;
15818;SDS011;8010;53.986;12.106;2023-02-01T15:28:15;2.23;;;0.60;;
15818;SDS011;8010;53.986;12.106;2023-02-01T15:30:55;1.30;;;0.33;;
15818;SDS011;8010;53.986;12.106;2023-02-01T15:33:20;0.63;;;0.20;;
15818;SDS011;8010;53.986;12.106;2023-02-01T15:35:47;1.83;;;0.60;;
15818;SDS011;8010;53.986;12.106;2023-02-01T15:38:34;4.10;;;0.60;;
15818;SDS011;8010;53.986;12.106;2023-02-01T15:46:30;1.30;;;0.40;;
15818;SDS011;8010;53.986;12.106;2023-02-01T15:48:58;5.20;;;0.57;;
15818;SDS011;8010;53.986;12.106;2023-02-01T15:51:25;4.33;;;0.50;;
15818;SDS011;8010;53.986;12.106;2023-02-01T15:53:56;3.13;;;0.57;;
15818;SDS011;8010;53.986;12.106;2023-02-01T15:56:26;1.83;;;0.53;;
15818;SDS011;8010;53.986;12.106;2023-02-01T15:58:56;3.10;;;0.40;;
15818;SDS011;8010;53.986;12.106;2023-02-01T16:01:24;3.40;;;0.40;;
15818;SDS011;8010;53.986;12.106;2023-02-01T16:04:01;2.73;;;0.80;;
15818;SDS011;8010;53.986;12.106;2023-02-01T16:06:54;1.70;;;0.73;;
15818;SDS011;8010;53.986;12.106;2023-02-01T16:09:39;3.03;;;0.90;;
15818;SDS011;8010;53.986;12.106;2023-02-01T16:15:00;3.30;;;1.03;;
15818;SDS011;8010;53.986;12.106;2023-02-01T16:17:26;3.10;;;0.90;;
15818;SDS011;8010;53.986;12.106;2023-02-01T16:19:51;2.73;;;0.83;;
15818;SDS011;8010;53.986;12.106;2023-02-01T16:22:17;3.30;;;0.77;;
15818;SDS011;8010;53.986;12.106;2023-02-01T16:24:43;3.80;;;1.10;;
15818;SDS011;8010;53.986;12.106;2023-02-01T16:27:09;6.80;;;1.90;;
15818;SDS011;8010;53.986;12.106;2023-02-01T16:29:37;3.77;;;1.20;;
15818;SDS011;8010;53.986;12.106;2023-02-01T16:32:08;5.60;;;1.30;;
15818;SDS011;8010;53.986;12.106;2023-02-01T16:34:44;6.17;;;1.43;;
15818;SDS011;8010;53.986;12.106;2023-02-01T16:37:12;2.33;;;0.73;;
15818;SDS011;8010;53.986;12.106;2023-02-01T16:39:41;2.97;;;0.90;;
15818;SDS011;8010;53.986;12.106;2023-02-01T16:42:14;5.57;;;1.20;;
15818;SDS011;8010;53.986;12.106;2023-02-01T16:44:40;9.87;;;1.90;;
15818;SDS011;8010;53.986;12.106;2023-02-01T16:47:20;2.83;;;1.00;;
15818;SDS011;8010;53.986;12.106;2023-02-01T16:49:47;8.63;;;1.40;;
15818;SDS011;8010;53.986;12.106;2023-02-01T16:52:17;7.97;;;1.27;;
15818;SDS011;8010;53.986;12.106;2023-02-01T16:54:45;9.93;;;1.20;;
15818;SDS011;8010;53.986;12.106;2023-02-01T16:57:12;3.40;;;0.93;;
15818;SDS011;8010;53.986;12.106;2023-02-01T16:59:40;8.33;;;1.70;;
15818;SDS011;8010;53.986;12.106;2023-02-01T17:02:09;8.57;;;1.90;;
15818;SDS011;8010;53.986;12.106;2023-02-01T17:04:38;2.83;;;0.80;;
15818;SDS011;8010;53.986;12.106;2023-02-01T17:07:03;7.40;;;1.23;;
15818;SDS011;8010;53.986;12.106;2023-02-01T17:09:38;8.87;;;1.63;;
15818;SDS011;8010;53.986;12.106;2023-02-01T17:12:04;7.60;;;1.30;;
15818;SDS011;8010;53.986;12.106;2023-02-01T17:14:30;15.27;;;2.37;;